Aviation Digital Data Service (ADDS)

Output produced by METARs form (2343 UTC 29 May 2020)
found at http://www.aviationweather.gov/metar/data/
 
Forecast for: LRTR (TIMISOARA/GIARMA, RO)
Text: TAF LRTR 292300Z 3000/3100 33007KT CAVOK
Forecast period: 0000 UTC 30 May 2020 to 0000 UTC 31 May 2020
Forecast type: FROM: standard forecast or significant change
Winds: from the NNW (330 degrees) at 8 MPH (7 knots; 3.6 m/s)
Visibility: 6 or more miles 10+ km)
Ceiling: unknown
Clouds: missing
Weather: NSW  (no significant weather)